createdAt,value
2018-12-29T00:01:27.405Z,6.13
2018-12-29T00:03:55.695Z,6.13
2018-12-29T00:06:23.947Z,6.15
2018-12-29T00:08:52.237Z,6.19
2018-12-29T00:11:20.526Z,6.19
2018-12-29T00:13:48.881Z,6.15
2018-12-29T00:16:17.128Z,6.15
2018-12-29T00:18:45.393Z,6.20
2018-12-29T00:21:13.711Z,6.23
2018-12-29T00:23:42.028Z,6.23
2018-12-29T00:26:10.972Z,6.22
2018-12-29T00:28:39.287Z,6.22
2018-12-29T00:31:07.555Z,6.17
2018-12-29T00:33:35.916Z,6.22
2018-12-29T00:36:04.387Z,6.21
2018-12-29T00:38:32.681Z,6.23
2018-12-29T00:41:00.931Z,6.23
2018-12-29T00:43:29.238Z,6.20
2018-12-29T00:45:57.519Z,6.22
2018-12-29T00:48:25.817Z,6.22
2018-12-29T00:50:54.082Z,6.23
2018-12-29T00:53:22.331Z,6.22
2018-12-29T00:55:50.662Z,6.23
2018-12-29T00:58:18.932Z,6.25
2018-12-29T01:00:47.225Z,6.25
2018-12-29T01:03:15.682Z,6.22
2018-12-29T01:05:43.928Z,6.22
2018-12-29T01:08:12.218Z,6.24
2018-12-29T01:10:40.523Z,6.23
2018-12-29T01:13:08.812Z,6.27
2018-12-29T01:15:37.167Z,6.27
2018-12-29T01:18:05.416Z,6.27
2018-12-29T01:20:33.666Z,6.23
2018-12-29T01:23:02.009Z,6.23
2018-12-29T01:25:30.303Z,6.26
2018-12-29T01:27:58.561Z,6.26
2018-12-29T01:30:26.872Z,6.29
2018-12-29T01:32:55.221Z,6.28
2018-12-29T01:35:23.481Z,6.28
2018-12-29T01:37:51.788Z,6.26
2018-12-29T01:40:20.189Z,6.29
2018-12-29T01:42:48.453Z,6.29
2018-12-29T01:45:17.589Z,6.31
2018-12-29T01:47:46.998Z,6.36
2018-12-29T01:50:15.628Z,6.36
2018-12-29T01:52:43.893Z,6.29
2018-12-29T01:55:12.176Z,6.40
2018-12-29T01:57:40.451Z,6.40
2018-12-29T02:00:08.825Z,6.41
2018-12-29T02:02:37.101Z,6.41
2018-12-29T02:05:05.722Z,6.41
2018-12-29T02:07:34.199Z,6.43
2018-12-29T02:10:02.491Z,6.41
2018-12-29T02:12:30.783Z,6.43
2018-12-29T02:14:59.077Z,6.43
2018-12-29T02:17:27.393Z,6.37
2018-12-29T02:19:55.674Z,6.42
2018-12-29T02:22:23.956Z,6.39
2018-12-29T02:24:52.218Z,6.45
2018-12-29T02:27:20.606Z,6.43
2018-12-29T02:29:48.909Z,6.40
2018-12-29T02:32:17.154Z,6.39
2018-12-29T02:34:45.618Z,6.39
2018-12-29T02:37:13.871Z,6.40
2018-12-29T02:39:42.285Z,6.48
2018-12-29T02:42:10.561Z,6.41
2018-12-29T02:44:39.011Z,6.47
2018-12-29T02:47:07.271Z,6.48
2018-12-29T02:49:35.549Z,6.50
2018-12-29T02:52:03.870Z,6.50
2018-12-29T02:54:32.167Z,6.51
2018-12-29T02:57:00.436Z,6.53
2018-12-29T02:59:28.742Z,6.57
2018-12-29T03:01:57.036Z,6.56
2018-12-29T03:04:25.291Z,6.58
2018-12-29T03:06:53.562Z,6.57
2018-12-29T03:09:21.816Z,6.61
2018-12-29T03:11:50.100Z,6.61
2018-12-29T03:14:18.417Z,6.64
2018-12-29T03:16:46.672Z,6.64
2018-12-29T03:19:14.937Z,6.64
2018-12-29T03:21:43.224Z,6.66
2018-12-29T03:24:11.539Z,6.67
2018-12-29T03:26:39.791Z,6.68
2018-12-29T03:29:08.096Z,6.70
2018-12-29T03:31:36.374Z,6.70
2018-12-29T03:34:04.631Z,6.71
2018-12-29T03:36:32.954Z,6.71
2018-12-29T03:39:01.209Z,6.72
2018-12-29T03:41:29.498Z,6.74
2018-12-29T03:43:57.883Z,6.75
2018-12-29T03:46:26.145Z,6.77
2018-12-29T03:48:54.415Z,6.78
2018-12-29T03:51:22.670Z,6.79
2018-12-29T03:53:51.526Z,6.80
2018-12-29T03:56:19.785Z,6.83
2018-12-29T03:58:48.181Z,6.83
2018-12-29T04:01:16.488Z,6.82
2018-12-29T04:03:44.741Z,6.84
2018-12-29T04:06:13.022Z,6.85
2018-12-29T04:08:42.974Z,6.87
2018-12-29T04:11:11.279Z,6.88
2018-12-29T04:13:39.778Z,6.88
2018-12-29T04:16:08.061Z,6.91
2018-12-29T04:18:36.729Z,6.93
2018-12-29T04:21:04.993Z,6.91
2018-12-29T04:23:33.273Z,6.94
2018-12-29T04:26:01.523Z,6.97
2018-12-29T04:28:29.866Z,6.97
2018-12-29T04:30:58.114Z,7.00
2018-12-29T04:33:26.403Z,7.02
2018-12-29T04:35:54.684Z,7.03
2018-12-29T04:38:23.073Z,7.03
2018-12-29T04:40:51.361Z,7.07
2018-12-29T04:43:19.700Z,7.07
2018-12-29T04:45:47.986Z,7.10
2018-12-29T04:48:16.255Z,7.11
2018-12-29T04:50:44.701Z,7.12
2018-12-29T04:53:13.051Z,7.15
2018-12-29T04:55:41.297Z,7.16
2018-12-29T04:58:09.657Z,7.12
2018-12-29T05:00:37.915Z,7.16
2018-12-29T05:03:06.524Z,7.19
2018-12-29T05:05:35.476Z,7.21
2018-12-29T05:08:03.779Z,7.23
2018-12-29T05:10:32.035Z,7.23
2018-12-29T05:13:00.298Z,7.24
2018-12-29T05:15:28.631Z,7.26
2018-12-29T05:17:56.899Z,7.27
2018-12-29T05:20:25.263Z,7.28
2018-12-29T05:22:54.218Z,7.28
2018-12-29T05:25:22.547Z,7.30
2018-12-29T05:27:50.842Z,7.30
2018-12-29T05:30:19.102Z,7.30
2018-12-29T05:32:47.371Z,7.31
2018-12-29T05:35:15.795Z,7.31
2018-12-29T05:37:44.091Z,7.34
2018-12-29T05:40:12.347Z,7.33
2018-12-29T05:42:40.627Z,7.35
2018-12-29T05:45:08.894Z,7.37
2018-12-29T05:47:37.228Z,7.38
2018-12-29T05:50:05.947Z,7.41
2018-12-29T05:52:34.382Z,7.40
2018-12-29T05:55:02.642Z,7.41
2018-12-29T05:57:30.906Z,7.42
2018-12-29T05:59:59.289Z,7.43
2018-12-29T06:02:27.557Z,7.46
2018-12-29T06:04:55.817Z,7.45
2018-12-29T06:07:24.149Z,7.45
2018-12-29T06:09:52.407Z,7.48
2018-12-29T06:12:20.767Z,7.49
2018-12-29T06:14:50.525Z,7.49
2018-12-29T06:17:18.782Z,7.49
2018-12-29T06:19:47.070Z,7.49
2018-12-29T06:22:15.423Z,7.50
2018-12-29T06:24:43.663Z,7.49
2018-12-29T06:27:11.927Z,7.48
2018-12-29T06:29:40.207Z,7.49
2018-12-29T06:32:08.469Z,7.53
2018-12-29T06:34:36.916Z,7.51
2018-12-29T06:37:05.174Z,7.49
2018-12-29T06:39:33.443Z,7.52
2018-12-29T06:42:01.749Z,7.50
2018-12-29T06:44:30.007Z,7.50
2018-12-29T06:46:58.313Z,7.50
2018-12-29T06:49:26.617Z,7.50
2018-12-29T06:51:54.905Z,7.48
2018-12-29T06:54:23.166Z,7.53
2018-12-29T06:56:51.529Z,7.52
2018-12-29T06:59:19.812Z,7.54
2018-12-29T07:01:48.067Z,7.56
2018-12-29T07:04:16.397Z,7.56
2018-12-29T07:06:44.656Z,7.54
2018-12-29T07:09:12.998Z,7.55
2018-12-29T07:11:41.278Z,7.57
2018-12-29T07:14:09.590Z,7.58
2018-12-29T07:16:42.279Z,7.57
2018-12-29T07:19:07.891Z,7.57
2018-12-29T07:21:36.856Z,7.58
2018-12-29T07:24:05.166Z,7.59
2018-12-29T07:26:33.443Z,7.63
2018-12-29T07:29:01.719Z,7.62
2018-12-29T07:31:30.103Z,7.61
2018-12-29T07:33:58.411Z,7.63
2018-12-29T07:36:26.711Z,7.67
2018-12-29T07:38:55.129Z,7.67
2018-12-29T07:41:23.378Z,7.67
2018-12-29T07:43:51.644Z,7.68
2018-12-29T07:46:20.035Z,7.69
2018-12-29T07:48:48.301Z,7.67
2018-12-29T07:51:16.587Z,7.67
2018-12-29T07:53:44.912Z,7.69
2018-12-29T07:56:14.859Z,7.71
2018-12-29T07:58:43.110Z,7.69
2018-12-29T08:01:11.405Z,7.72
2018-12-29T08:03:39.758Z,7.71
2018-12-29T08:06:08.067Z,7.74
2018-12-29T08:08:36.327Z,7.74
2018-12-29T08:11:04.587Z,7.74
2018-12-29T08:13:33.027Z,7.74
2018-12-29T08:16:01.294Z,7.76
2018-12-29T08:18:29.572Z,7.77
2018-12-29T08:20:57.893Z,7.79
2018-12-29T08:23:26.179Z,7.76
2018-12-29T08:25:54.438Z,7.74
2018-12-29T08:28:22.722Z,7.75
2018-12-29T08:30:51.011Z,7.78
2018-12-29T08:33:19.441Z,7.79
2018-12-29T08:35:47.705Z,7.82
2018-12-29T08:38:15.996Z,7.82
2018-12-29T08:40:44.351Z,7.81
2018-12-29T08:43:12.640Z,7.81
2018-12-29T08:45:40.889Z,7.83
2018-12-29T08:48:09.176Z,7.84
2018-12-29T08:50:37.485Z,7.88
2018-12-29T08:53:05.759Z,7.87
2018-12-29T08:55:36.956Z,7.89
2018-12-29T08:58:05.258Z,7.91
2018-12-29T09:00:33.643Z,7.91
2018-12-29T09:03:02.182Z,7.93
2018-12-29T09:05:30.479Z,7.95
2018-12-29T09:07:59.156Z,7.96
2018-12-29T09:10:27.469Z,7.95
2018-12-29T09:12:55.776Z,7.94
2018-12-29T09:15:24.027Z,7.93
2018-12-29T09:17:52.333Z,7.95
2018-12-29T09:20:20.611Z,7.99
2018-12-29T09:22:48.908Z,7.96
2018-12-29T09:25:17.227Z,7.97
2018-12-29T09:27:45.492Z,7.98
2018-12-29T09:30:13.762Z,7.95
2018-12-29T09:32:42.322Z,7.95
2018-12-29T09:35:10.575Z,7.92
2018-12-29T09:37:38.852Z,7.91
2018-12-29T09:40:07.102Z,7.90
2018-12-29T09:42:35.420Z,7.90
2018-12-29T09:45:03.734Z,7.90
2018-12-29T09:47:32.044Z,7.83
2018-12-29T09:50:00.406Z,7.84
2018-12-29T09:52:28.674Z,7.85
2018-12-29T09:54:56.977Z,7.87
2018-12-29T09:57:25.265Z,7.88
2018-12-29T09:59:53.548Z,7.90
2018-12-29T10:02:21.823Z,7.91
2018-12-29T10:04:50.078Z,7.92
2018-12-29T10:07:18.431Z,7.89
2018-12-29T10:09:46.687Z,7.90
2018-12-29T10:12:14.947Z,7.90
2018-12-29T10:14:43.268Z,7.90
2018-12-29T10:17:11.691Z,7.91
2018-12-29T10:19:39.951Z,7.96
2018-12-29T10:22:08.212Z,8.01
2018-12-29T10:24:36.539Z,8.01
2018-12-29T10:27:04.788Z,8.03
2018-12-29T10:29:33.072Z,8.02
2018-12-29T10:32:01.349Z,8.07
2018-12-29T10:34:29.639Z,8.08
2018-12-29T10:36:57.885Z,8.11
2018-12-29T10:39:26.212Z,8.13
2018-12-29T10:41:54.491Z,8.13
2018-12-29T10:44:22.799Z,8.11
2018-12-29T10:46:51.097Z,8.14
2018-12-29T10:49:19.364Z,8.17
2018-12-29T10:51:47.653Z,8.16
2018-12-29T10:54:15.943Z,8.16
2018-12-29T10:56:44.311Z,8.16
2018-12-29T10:59:12.632Z,8.19
2018-12-29T11:01:41.544Z,8.23
2018-12-29T11:04:09.883Z,8.24
2018-12-29T11:06:38.111Z,8.26
2018-12-29T11:09:06.773Z,8.28
2018-12-29T11:11:35.083Z,8.27
2018-12-29T11:14:03.370Z,8.28
2018-12-29T11:16:31.674Z,8.26
2018-12-29T11:18:59.927Z,8.25
2018-12-29T11:21:28.245Z,8.26
2018-12-29T11:23:56.497Z,8.27
2018-12-29T11:26:24.750Z,8.24
2018-12-29T11:28:53.136Z,8.26
2018-12-29T11:31:21.402Z,8.27
2018-12-29T11:33:49.663Z,8.27
2018-12-29T11:36:18.054Z,8.24
2018-12-29T11:38:46.594Z,8.26
2018-12-29T11:41:14.847Z,8.29
2018-12-29T11:43:43.177Z,8.30
2018-12-29T11:46:11.423Z,8.31
2018-12-29T11:48:39.703Z,8.32
2018-12-29T11:51:07.984Z,8.35
2018-12-29T11:53:36.562Z,8.32
2018-12-29T11:56:04.857Z,8.31
2018-12-29T11:58:33.214Z,8.35
2018-12-29T12:01:01.589Z,8.36
2018-12-29T12:03:29.850Z,8.39
2018-12-29T12:05:58.111Z,8.38
2018-12-29T12:08:26.544Z,8.35
2018-12-29T12:10:55.127Z,8.38
2018-12-29T12:13:23.423Z,8.39
2018-12-29T12:15:51.755Z,8.38
2018-12-29T12:18:20.007Z,8.36
2018-12-29T12:20:48.292Z,8.39
2018-12-29T12:23:17.467Z,8.35
2018-12-29T12:25:45.725Z,8.33
2018-12-29T12:28:13.979Z,8.29
2018-12-29T12:30:42.286Z,8.26
2018-12-29T12:33:11.655Z,8.19
2018-12-29T12:35:40.006Z,8.16
2018-12-29T12:38:08.532Z,8.15
2018-12-29T12:40:37.097Z,8.12
2018-12-29T12:43:05.428Z,8.10
2018-12-29T12:45:33.677Z,8.11
2018-12-29T12:48:05.138Z,8.12
2018-12-29T12:50:32.254Z,8.14
2018-12-29T12:53:00.534Z,8.12
2018-12-29T12:55:28.800Z,8.08
2018-12-29T12:57:57.236Z,8.10
2018-12-29T13:00:25.895Z,8.13
2018-12-29T13:02:54.562Z,8.12
2018-12-29T13:05:22.846Z,8.13
2018-12-29T13:07:51.888Z,8.14
2018-12-29T13:10:20.362Z,8.16
2018-12-29T13:12:48.675Z,8.14
2018-12-29T13:15:16.987Z,8.13
2018-12-29T13:17:45.424Z,8.13
2018-12-29T13:20:13.680Z,8.15
2018-12-29T13:22:42.313Z,8.13
2018-12-29T13:25:10.595Z,8.10
2018-12-29T13:27:38.977Z,8.10
2018-12-29T13:30:07.231Z,8.09
2018-12-29T13:32:35.496Z,8.08
2018-12-29T13:35:04.209Z,8.09
2018-12-29T13:37:32.459Z,8.05
2018-12-29T13:40:00.846Z,8.05
2018-12-29T13:42:29.102Z,8.06
2018-12-29T13:44:57.371Z,8.04
2018-12-29T13:47:25.760Z,8.04
2018-12-29T13:49:54.012Z,8.00
2018-12-29T13:52:22.397Z,8.02
2018-12-29T13:54:51.879Z,8.06
2018-12-29T13:57:20.088Z,8.05
2018-12-29T13:59:48.889Z,8.07
2018-12-29T14:02:17.141Z,8.05
2018-12-29T14:04:45.394Z,8.09
2018-12-29T14:07:13.677Z,8.10
2018-12-29T14:09:41.935Z,8.07
2018-12-29T14:12:10.524Z,8.11
2018-12-29T14:14:38.785Z,8.12
2018-12-29T14:17:07.069Z,8.11
2018-12-29T14:19:35.456Z,8.11
2018-12-29T14:22:03.757Z,8.11
2018-12-29T14:24:32.298Z,8.12
2018-12-29T14:27:00.606Z,8.15
2018-12-29T14:29:28.864Z,8.13
2018-12-29T14:31:57.183Z,8.17
2018-12-29T14:34:25.572Z,8.19
2018-12-29T14:36:54.258Z,8.15
2018-12-29T14:39:22.597Z,8.16
2018-12-29T14:41:51.027Z,8.13
2018-12-29T14:44:19.344Z,8.18
2018-12-29T14:46:47.595Z,8.16
2018-12-29T14:49:16.151Z,8.20
2018-12-29T14:51:44.463Z,8.20
2018-12-29T14:54:12.875Z,8.18
2018-12-29T14:56:41.178Z,8.20
2018-12-29T14:59:09.418Z,8.18
2018-12-29T15:01:38.231Z,8.23
2018-12-29T15:04:06.513Z,8.27
2018-12-29T15:06:34.794Z,8.29
2018-12-29T15:09:03.085Z,8.30
2018-12-29T15:11:31.407Z,8.31
2018-12-29T15:13:59.720Z,8.34
2018-12-29T15:16:28.007Z,8.37
2018-12-29T15:18:56.825Z,8.40
2018-12-29T15:21:25.490Z,8.40
2018-12-29T15:23:53.823Z,8.41
2018-12-29T15:26:22.090Z,8.47
2018-12-29T15:28:51.029Z,8.47
2018-12-29T15:31:20.192Z,8.48
2018-12-29T15:33:48.514Z,8.53
2018-12-29T15:36:16.846Z,8.51
2018-12-29T15:38:45.211Z,8.57
2018-12-29T15:41:13.486Z,8.59
2018-12-29T15:43:41.889Z,8.59
2018-12-29T15:46:10.142Z,8.59
2018-12-29T15:48:38.394Z,8.60
2018-12-29T15:51:06.734Z,8.63
2018-12-29T15:53:35.010Z,8.67
2018-12-29T15:56:03.316Z,8.69
2018-12-29T15:58:31.582Z,8.71
2018-12-29T16:00:59.900Z,8.76
2018-12-29T16:03:28.258Z,8.76
2018-12-29T16:05:57.007Z,8.81
2018-12-29T16:08:25.485Z,8.84
2018-12-29T16:10:53.779Z,8.86
2018-12-29T16:13:22.076Z,8.89
2018-12-29T16:15:50.352Z,8.91
2018-12-29T16:18:18.907Z,8.94
2018-12-29T16:20:55.304Z,8.93
2018-12-29T16:23:17.197Z,8.98
2018-12-29T16:25:45.768Z,8.99
2018-12-29T16:28:14.034Z,9.02
2018-12-29T16:30:42.303Z,9.05
2018-12-29T16:33:10.584Z,9.07
2018-12-29T16:35:38.856Z,9.10
2018-12-29T16:38:07.264Z,9.10
2018-12-29T16:40:35.563Z,9.18
2018-12-29T16:43:03.832Z,9.19
2018-12-29T16:45:32.192Z,9.25
2018-12-29T16:48:00.451Z,9.31
2018-12-29T16:50:28.699Z,9.34
2018-12-29T16:52:57.008Z,9.39
2018-12-29T16:55:25.251Z,9.41
2018-12-29T16:57:53.510Z,9.45
2018-12-29T17:00:21.794Z,9.47
2018-12-29T17:02:50.063Z,9.47
2018-12-29T17:05:18.379Z,9.50
2018-12-29T17:07:46.675Z,9.50
2018-12-29T17:10:15.082Z,9.49
2018-12-29T17:12:43.354Z,9.54
2018-12-29T17:15:11.874Z,9.54
2018-12-29T17:17:40.160Z,9.56
2018-12-29T17:20:08.590Z,9.56
2018-12-29T17:22:37.142Z,9.56
2018-12-29T17:25:05.475Z,9.56
2018-12-29T17:27:33.772Z,9.59
2018-12-29T17:30:02.025Z,9.61
2018-12-29T17:32:30.378Z,9.64
2018-12-29T17:34:58.672Z,9.64
2018-12-29T17:37:26.961Z,9.67
2018-12-29T17:39:55.346Z,9.73
2018-12-29T17:42:23.787Z,9.74
2018-12-29T17:44:52.064Z,9.70
2018-12-29T17:47:20.337Z,9.69
2018-12-29T17:49:48.779Z,9.73
2018-12-29T17:52:17.020Z,9.78
2018-12-29T17:54:45.309Z,9.74
2018-12-29T17:57:13.610Z,9.74
2018-12-29T17:59:41.890Z,9.75
2018-12-29T18:02:10.261Z,9.77
2018-12-29T18:04:38.525Z,9.78
2018-12-29T18:07:06.805Z,9.81
2018-12-29T18:09:35.059Z,9.77
2018-12-29T18:12:03.816Z,9.75
2018-12-29T18:14:32.092Z,9.75
2018-12-29T18:17:00.374Z,9.72
2018-12-29T18:19:30.668Z,9.66
2018-12-29T18:21:59.593Z,9.62
2018-12-29T18:24:27.925Z,9.53
2018-12-29T18:26:56.265Z,9.46
2018-12-29T18:29:24.562Z,9.36
2018-12-29T18:31:53.229Z,9.27
2018-12-29T18:34:21.611Z,9.18
2018-12-29T18:36:49.863Z,9.15
2018-12-29T18:39:18.444Z,9.11
2018-12-29T18:41:46.716Z,9.00
2018-12-29T18:44:15.048Z,8.94
2018-12-29T18:46:43.347Z,8.92
2018-12-29T18:49:11.672Z,8.85
2018-12-29T18:51:39.953Z,8.76
2018-12-29T18:54:08.275Z,8.71
2018-12-29T18:56:36.557Z,8.69
2018-12-29T18:59:04.828Z,8.61
2018-12-29T19:01:33.115Z,8.57
2018-12-29T19:04:01.477Z,8.55
2018-12-29T19:06:29.782Z,8.48
2018-12-29T19:08:58.080Z,8.46
2018-12-29T19:11:26.627Z,8.41
2018-12-29T19:13:55.109Z,8.40
2018-12-29T19:16:23.347Z,8.37
2018-12-29T19:18:51.636Z,8.36
2018-12-29T19:21:42.358Z,8.36
2018-12-29T19:23:50.433Z,8.38
2018-12-29T19:26:19.033Z,8.35
2018-12-29T19:28:47.624Z,8.34
2018-12-29T19:31:16.180Z,8.31
2018-12-29T19:33:44.475Z,8.26
2018-12-29T19:36:12.792Z,8.21
2018-12-29T19:38:41.053Z,8.18
2018-12-29T19:41:09.766Z,8.18
2018-12-29T19:43:38.031Z,8.13
2018-12-29T19:46:06.796Z,8.10
2018-12-29T19:48:35.197Z,8.01
2018-12-29T19:51:03.476Z,8.05
2018-12-29T19:53:32.202Z,8.00
2018-12-29T19:56:00.547Z,8.02
2018-12-29T19:58:29.761Z,7.96
2018-12-29T20:00:58.080Z,7.98
2018-12-29T20:03:26.446Z,7.91
2018-12-29T20:05:54.832Z,7.93
2018-12-29T20:08:23.104Z,7.96
2018-12-29T20:10:51.606Z,7.99
2018-12-29T20:13:19.916Z,7.98
2018-12-29T20:15:48.246Z,7.95
2018-12-29T20:18:16.597Z,7.93
2018-12-29T20:20:44.910Z,7.97
2018-12-29T20:23:13.624Z,7.96
2018-12-29T20:25:41.989Z,7.97
2018-12-29T20:28:10.280Z,8.01
2018-12-29T20:30:38.926Z,8.01
2018-12-29T20:33:07.374Z,8.00
2018-12-29T20:35:35.728Z,7.98
2018-12-29T20:38:04.041Z,8.01
2018-12-29T20:40:32.363Z,8.06
2018-12-29T20:43:01.234Z,7.99
2018-12-29T20:45:29.590Z,8.05
2018-12-29T20:47:58.188Z,8.05
2018-12-29T20:50:26.855Z,8.02
2018-12-29T20:52:55.461Z,8.03
2018-12-29T20:55:24.177Z,8.08
2018-12-29T20:57:52.892Z,8.06
2018-12-29T21:00:21.245Z,8.06
2018-12-29T21:02:50.311Z,8.04
2018-12-29T21:05:18.664Z,8.06
2018-12-29T21:07:47.007Z,8.08
2018-12-29T21:10:15.320Z,8.12
2018-12-29T21:12:43.709Z,8.19
2018-12-29T21:15:12.127Z,8.23
2018-12-29T21:17:40.689Z,8.31
2018-12-29T21:20:09.050Z,8.34
2018-12-29T21:22:37.408Z,8.43
2018-12-29T21:25:05.694Z,8.41
2018-12-29T21:27:33.955Z,8.43
2018-12-29T21:30:02.363Z,8.46
2018-12-29T21:32:30.780Z,8.43
2018-12-29T21:34:59.122Z,8.43
2018-12-29T21:37:27.432Z,8.42
2018-12-29T21:39:55.732Z,8.40
2018-12-29T21:42:23.971Z,8.38
2018-12-29T21:44:54.031Z,8.37
2018-12-29T21:47:22.302Z,8.35
2018-12-29T21:49:50.587Z,8.35
2018-12-29T21:52:18.981Z,8.36
2018-12-29T21:54:47.325Z,8.48
2018-12-29T21:57:15.587Z,8.58
2018-12-29T21:59:44.284Z,8.61
2018-12-29T22:02:12.548Z,8.67
2018-12-29T22:04:40.829Z,8.70
2018-12-29T22:07:09.125Z,8.73
2018-12-29T22:09:37.420Z,8.76
2018-12-29T22:12:05.735Z,8.80
2018-12-29T22:14:34.006Z,8.82
2018-12-29T22:17:02.285Z,8.81
2018-12-29T22:19:30.563Z,8.79
2018-12-29T22:21:58.908Z,8.79
2018-12-29T22:24:27.165Z,8.82
2018-12-29T22:26:55.446Z,8.85
2018-12-29T22:29:23.740Z,8.79
2018-12-29T22:31:52.072Z,8.78
2018-12-29T22:34:20.332Z,8.75
2018-12-29T22:36:48.597Z,8.78
2018-12-29T22:39:16.897Z,8.76
2018-12-29T22:41:45.239Z,8.78
2018-12-29T22:44:13.652Z,8.74
2018-12-29T22:46:41.985Z,8.76
2018-12-29T22:49:10.250Z,8.74
2018-12-29T22:51:38.614Z,8.76
2018-12-29T22:54:06.882Z,8.75
2018-12-29T22:56:35.238Z,8.79
2018-12-29T22:59:03.492Z,8.73
2018-12-29T23:01:31.767Z,8.73
2018-12-29T23:04:00.064Z,8.70
2018-12-29T23:06:28.376Z,8.72
2018-12-29T23:08:57.055Z,8.72
2018-12-29T23:11:25.355Z,8.70
2018-12-29T23:13:53.629Z,8.71
2018-12-29T23:16:22.246Z,8.70
2018-12-29T23:18:50.756Z,8.64
2018-12-29T23:21:19.024Z,8.69
2018-12-29T23:23:47.376Z,8.65
2018-12-29T23:26:15.628Z,8.70
2018-12-29T23:28:43.940Z,8.67
2018-12-29T23:31:12.247Z,8.69
2018-12-29T23:33:40.507Z,8.60
2018-12-29T23:36:08.886Z,8.62
2018-12-29T23:38:37.257Z,8.61
2018-12-29T23:41:05.559Z,8.57
2018-12-29T23:43:34.632Z,8.57
2018-12-29T23:46:02.895Z,8.58
2018-12-29T23:48:31.342Z,8.52
2018-12-29T23:51:05.550Z,8.54
2018-12-29T23:53:29.621Z,8.52
2018-12-29T23:55:58.181Z,8.52
2018-12-29T23:58:26.449Z,8.49
